sensor_id;sensor_type;location;lat;lon;timestamp;P1;durP1;ratioP1;P2;durP2;ratioP2
75441;SDS011;64019;48.312;14.226;2022-10-16T00:01:57;6.97;;;3.90;;
75441;SDS011;64019;48.312;14.226;2022-10-16T00:04:22;7.93;;;4.07;;
75441;SDS011;64019;48.312;14.226;2022-10-16T00:06:48;9.27;;;4.47;;
75441;SDS011;64019;48.312;14.226;2022-10-16T00:09:14;36.13;;;5.17;;
75441;SDS011;64019;48.312;14.226;2022-10-16T00:11:40;36.07;;;4.87;;
75441;SDS011;64019;48.312;14.226;2022-10-16T00:14:07;7.13;;;4.50;;
75441;SDS011;64019;48.312;14.226;2022-10-16T00:16:38;11.27;;;3.93;;
75441;SDS011;64019;48.312;14.226;2022-10-16T00:19:04;6.53;;;3.63;;
75441;SDS011;64019;48.312;14.226;2022-10-16T00:21:30;6.70;;;3.73;;
75441;SDS011;64019;48.312;14.226;2022-10-16T00:23:58;7.93;;;4.27;;
75441;SDS011;64019;48.312;14.226;2022-10-16T00:26:26;9.90;;;3.60;;
75441;SDS011;64019;48.312;14.226;2022-10-16T00:28:53;11.77;;;3.60;;
75441;SDS011;64019;48.312;14.226;2022-10-16T00:31:19;4.60;;;3.47;;
75441;SDS011;64019;48.312;14.226;2022-10-16T00:33:47;9.57;;;3.97;;
75441;SDS011;64019;48.312;14.226;2022-10-16T00:36:14;6.30;;;3.60;;
75441;SDS011;64019;48.312;14.226;2022-10-16T00:38:41;6.27;;;3.27;;
75441;SDS011;64019;48.312;14.226;2022-10-16T00:41:09;6.67;;;3.63;;
75441;SDS011;64019;48.312;14.226;2022-10-16T00:43:41;7.33;;;3.67;;
75441;SDS011;64019;48.312;14.226;2022-10-16T00:46:12;12.27;;;4.23;;
75441;SDS011;64019;48.312;14.226;2022-10-16T00:48:54;10.13;;;4.00;;
75441;SDS011;64019;48.312;14.226;2022-10-16T00:51:22;10.47;;;3.50;;
75441;SDS011;64019;48.312;14.226;2022-10-16T00:53:51;9.00;;;4.10;;
75441;SDS011;64019;48.312;14.226;2022-10-16T00:56:17;5.97;;;3.97;;
75441;SDS011;64019;48.312;14.226;2022-10-16T00:58:43;13.17;;;3.97;;
75441;SDS011;64019;48.312;14.226;2022-10-16T01:01:09;12.10;;;4.30;;
75441;SDS011;64019;48.312;14.226;2022-10-16T01:03:36;16.33;;;4.57;;
75441;SDS011;64019;48.312;14.226;2022-10-16T01:11:50;10.40;;;3.87;;
75441;SDS011;64019;48.312;14.226;2022-10-16T01:14:29;8.03;;;3.43;;
75441;SDS011;64019;48.312;14.226;2022-10-16T01:20:29;21.70;;;3.67;;
75441;SDS011;64019;48.312;14.226;2022-10-16T01:22:59;10.53;;;3.33;;
75441;SDS011;64019;48.312;14.226;2022-10-16T01:28:28;13.77;;;3.80;;
75441;SDS011;64019;48.312;14.226;2022-10-16T01:31:01;9.33;;;3.57;;
75441;SDS011;64019;48.312;14.226;2022-10-16T01:33:47;8.20;;;3.57;;
75441;SDS011;64019;48.312;14.226;2022-10-16T01:36:22;8.63;;;2.93;;
75441;SDS011;64019;48.312;14.226;2022-10-16T01:38:54;15.60;;;3.80;;
75441;SDS011;64019;48.312;14.226;2022-10-16T01:41:32;10.57;;;3.40;;
75441;SDS011;64019;48.312;14.226;2022-10-16T01:44:07;8.00;;;3.40;;
75441;SDS011;64019;48.312;14.226;2022-10-16T01:46:44;9.57;;;3.53;;
75441;SDS011;64019;48.312;14.226;2022-10-16T01:49:12;8.00;;;3.77;;
75441;SDS011;64019;48.312;14.226;2022-10-16T01:51:38;4.40;;;3.13;;
75441;SDS011;64019;48.312;14.226;2022-10-16T01:54:05;6.83;;;3.70;;
75441;SDS011;64019;48.312;14.226;2022-10-16T01:56:33;7.40;;;3.13;;
75441;SDS011;64019;48.312;14.226;2022-10-16T01:59:09;8.77;;;3.53;;
75441;SDS011;64019;48.312;14.226;2022-10-16T02:01:38;5.90;;;3.07;;
75441;SDS011;64019;48.312;14.226;2022-10-16T02:04:18;18.70;;;3.40;;
75441;SDS011;64019;48.312;14.226;2022-10-16T02:06:48;4.77;;;3.13;;
75441;SDS011;64019;48.312;14.226;2022-10-16T02:09:13;7.47;;;3.10;;
75441;SDS011;64019;48.312;14.226;2022-10-16T02:11:42;9.20;;;3.20;;
75441;SDS011;64019;48.312;14.226;2022-10-16T02:14:08;8.57;;;3.43;;
75441;SDS011;64019;48.312;14.226;2022-10-16T02:16:44;8.50;;;3.30;;
75441;SDS011;64019;48.312;14.226;2022-10-16T02:19:14;27.30;;;3.50;;
75441;SDS011;64019;48.312;14.226;2022-10-16T02:27:25;11.03;;;3.53;;
75441;SDS011;64019;48.312;14.226;2022-10-16T02:30:07;21.73;;;3.03;;
75441;SDS011;64019;48.312;14.226;2022-10-16T02:32:54;15.87;;;3.97;;
75441;SDS011;64019;48.312;14.226;2022-10-16T02:35:23;8.00;;;3.17;;
75441;SDS011;64019;48.312;14.226;2022-10-16T02:37:49;18.43;;;3.97;;
75441;SDS011;64019;48.312;14.226;2022-10-16T02:40:16;40.77;;;3.67;;
75441;SDS011;64019;48.312;14.226;2022-10-16T02:42:43;9.33;;;2.80;;
75441;SDS011;64019;48.312;14.226;2022-10-16T02:45:09;5.83;;;3.20;;
75441;SDS011;64019;48.312;14.226;2022-10-16T02:47:35;4.30;;;2.20;;
75441;SDS011;64019;48.312;14.226;2022-10-16T02:50:02;12.17;;;3.20;;
75441;SDS011;64019;48.312;14.226;2022-10-16T02:52:28;16.10;;;3.03;;
75441;SDS011;64019;48.312;14.226;2022-10-16T02:54:53;12.43;;;3.13;;
75441;SDS011;64019;48.312;14.226;2022-10-16T02:57:19;12.40;;;2.90;;
75441;SDS011;64019;48.312;14.226;2022-10-16T02:59:45;13.87;;;2.73;;
75441;SDS011;64019;48.312;14.226;2022-10-16T03:02:11;10.30;;;2.60;;
75441;SDS011;64019;48.312;14.226;2022-10-16T03:04:37;6.50;;;2.90;;
75441;SDS011;64019;48.312;14.226;2022-10-16T03:07:03;6.20;;;2.50;;
75441;SDS011;64019;48.312;14.226;2022-10-16T03:09:29;9.93;;;2.77;;
75441;SDS011;64019;48.312;14.226;2022-10-16T03:11:54;4.83;;;2.90;;
75441;SDS011;64019;48.312;14.226;2022-10-16T03:14:20;4.87;;;2.60;;
75441;SDS011;64019;48.312;14.226;2022-10-16T03:16:46;12.63;;;2.47;;
75441;SDS011;64019;48.312;14.226;2022-10-16T03:19:12;9.57;;;2.57;;
75441;SDS011;64019;48.312;14.226;2022-10-16T03:21:37;3.00;;;2.50;;
75441;SDS011;64019;48.312;14.226;2022-10-16T03:24:03;6.40;;;2.67;;
75441;SDS011;64019;48.312;14.226;2022-10-16T03:26:29;3.50;;;2.33;;
75441;SDS011;64019;48.312;14.226;2022-10-16T03:28:55;9.67;;;2.83;;
75441;SDS011;64019;48.312;14.226;2022-10-16T03:31:20;3.73;;;2.40;;
75441;SDS011;64019;48.312;14.226;2022-10-16T03:33:47;2.90;;;2.57;;
75441;SDS011;64019;48.312;14.226;2022-10-16T03:36:12;3.37;;;2.23;;
75441;SDS011;64019;48.312;14.226;2022-10-16T03:38:38;3.80;;;2.80;;
75441;SDS011;64019;48.312;14.226;2022-10-16T03:41:04;3.70;;;3.00;;
75441;SDS011;64019;48.312;14.226;2022-10-16T03:43:29;3.40;;;2.70;;
75441;SDS011;64019;48.312;14.226;2022-10-16T03:45:55;15.30;;;3.40;;
75441;SDS011;64019;48.312;14.226;2022-10-16T03:48:21;4.83;;;2.50;;
75441;SDS011;64019;48.312;14.226;2022-10-16T03:50:47;11.00;;;2.93;;
75441;SDS011;64019;48.312;14.226;2022-10-16T03:53:13;4.10;;;2.70;;
75441;SDS011;64019;48.312;14.226;2022-10-16T03:55:41;4.93;;;2.57;;
75441;SDS011;64019;48.312;14.226;2022-10-16T03:58:07;7.83;;;2.80;;
75441;SDS011;64019;48.312;14.226;2022-10-16T04:00:33;6.57;;;3.03;;
75441;SDS011;64019;48.312;14.226;2022-10-16T04:02:59;10.73;;;3.00;;
75441;SDS011;64019;48.312;14.226;2022-10-16T04:05:25;8.93;;;3.10;;
75441;SDS011;64019;48.312;14.226;2022-10-16T04:07:51;6.53;;;3.10;;
75441;SDS011;64019;48.312;14.226;2022-10-16T04:10:16;17.37;;;3.00;;
75441;SDS011;64019;48.312;14.226;2022-10-16T04:12:42;13.27;;;3.43;;
75441;SDS011;64019;48.312;14.226;2022-10-16T04:15:08;6.60;;;3.00;;
75441;SDS011;64019;48.312;14.226;2022-10-16T04:17:35;8.73;;;3.10;;
75441;SDS011;64019;48.312;14.226;2022-10-16T04:20:00;17.10;;;3.13;;
75441;SDS011;64019;48.312;14.226;2022-10-16T04:22:26;12.37;;;3.33;;
75441;SDS011;64019;48.312;14.226;2022-10-16T04:24:52;14.70;;;3.40;;
75441;SDS011;64019;48.312;14.226;2022-10-16T04:27:17;11.37;;;4.00;;
75441;SDS011;64019;48.312;14.226;2022-10-16T04:29:43;7.80;;;3.33;;
75441;SDS011;64019;48.312;14.226;2022-10-16T04:32:09;7.67;;;3.40;;
75441;SDS011;64019;48.312;14.226;2022-10-16T04:34:35;9.07;;;3.50;;
75441;SDS011;64019;48.312;14.226;2022-10-16T04:37:01;24.27;;;4.07;;
75441;SDS011;64019;48.312;14.226;2022-10-16T04:39:26;13.40;;;3.70;;
75441;SDS011;64019;48.312;14.226;2022-10-16T04:41:52;13.30;;;3.97;;
75441;SDS011;64019;48.312;14.226;2022-10-16T04:44:18;25.67;;;3.80;;
75441;SDS011;64019;48.312;14.226;2022-10-16T04:46:43;17.33;;;3.80;;
75441;SDS011;64019;48.312;14.226;2022-10-16T04:49:09;14.93;;;4.03;;
75441;SDS011;64019;48.312;14.226;2022-10-16T04:51:35;26.43;;;3.97;;
75441;SDS011;64019;48.312;14.226;2022-10-16T04:54:01;9.47;;;4.17;;
75441;SDS011;64019;48.312;14.226;2022-10-16T04:56:27;6.53;;;3.63;;
75441;SDS011;64019;48.312;14.226;2022-10-16T04:58:52;25.23;;;4.20;;
75441;SDS011;64019;48.312;14.226;2022-10-16T05:01:18;31.00;;;4.23;;
75441;SDS011;64019;48.312;14.226;2022-10-16T05:03:44;8.67;;;3.13;;
75441;SDS011;64019;48.312;14.226;2022-10-16T05:06:09;12.73;;;3.77;;
75441;SDS011;64019;48.312;14.226;2022-10-16T05:08:35;13.77;;;3.47;;
75441;SDS011;64019;48.312;14.226;2022-10-16T05:11:01;16.73;;;3.30;;
75441;SDS011;64019;48.312;14.226;2022-10-16T05:13:27;5.67;;;2.90;;
75441;SDS011;64019;48.312;14.226;2022-10-16T05:15:52;5.90;;;3.00;;
75441;SDS011;64019;48.312;14.226;2022-10-16T05:18:18;8.37;;;3.10;;
75441;SDS011;64019;48.312;14.226;2022-10-16T05:20:43;5.67;;;2.77;;
75441;SDS011;64019;48.312;14.226;2022-10-16T05:23:09;5.87;;;3.13;;
75441;SDS011;64019;48.312;14.226;2022-10-16T05:25:36;9.13;;;3.03;;
75441;SDS011;64019;48.312;14.226;2022-10-16T05:28:02;10.53;;;3.03;;
75441;SDS011;64019;48.312;14.226;2022-10-16T05:30:28;9.93;;;3.17;;
75441;SDS011;64019;48.312;14.226;2022-10-16T05:32:54;13.00;;;2.60;;
75441;SDS011;64019;48.312;14.226;2022-10-16T05:35:20;11.87;;;3.07;;
75441;SDS011;64019;48.312;14.226;2022-10-16T05:37:46;8.47;;;2.90;;
75441;SDS011;64019;48.312;14.226;2022-10-16T05:40:13;11.03;;;3.07;;
75441;SDS011;64019;48.312;14.226;2022-10-16T05:42:40;16.30;;;3.50;;
75441;SDS011;64019;48.312;14.226;2022-10-16T05:45:06;7.10;;;3.13;;
75441;SDS011;64019;48.312;14.226;2022-10-16T05:47:34;10.80;;;3.60;;
75441;SDS011;64019;48.312;14.226;2022-10-16T05:50:00;9.77;;;3.77;;
75441;SDS011;64019;48.312;14.226;2022-10-16T05:52:26;10.87;;;3.47;;
75441;SDS011;64019;48.312;14.226;2022-10-16T05:54:52;11.40;;;3.60;;
75441;SDS011;64019;48.312;14.226;2022-10-16T05:57:18;14.40;;;3.47;;
75441;SDS011;64019;48.312;14.226;2022-10-16T05:59:44;8.23;;;4.00;;
75441;SDS011;64019;48.312;14.226;2022-10-16T06:02:13;10.30;;;5.30;;
75441;SDS011;64019;48.312;14.226;2022-10-16T06:04:39;6.30;;;3.13;;
75441;SDS011;64019;48.312;14.226;2022-10-16T06:07:05;11.93;;;3.60;;
75441;SDS011;64019;48.312;14.226;2022-10-16T06:09:31;24.07;;;4.33;;
75441;SDS011;64019;48.312;14.226;2022-10-16T06:11:56;7.47;;;3.87;;
75441;SDS011;64019;48.312;14.226;2022-10-16T06:14:22;14.77;;;5.37;;
75441;SDS011;64019;48.312;14.226;2022-10-16T06:16:48;14.00;;;4.70;;
75441;SDS011;64019;48.312;14.226;2022-10-16T06:19:13;23.30;;;4.03;;
75441;SDS011;64019;48.312;14.226;2022-10-16T06:21:40;19.27;;;3.70;;
75441;SDS011;64019;48.312;14.226;2022-10-16T06:24:06;26.30;;;4.07;;
75441;SDS011;64019;48.312;14.226;2022-10-16T06:26:32;16.63;;;4.13;;
75441;SDS011;64019;48.312;14.226;2022-10-16T06:28:58;32.93;;;4.27;;
75441;SDS011;64019;48.312;14.226;2022-10-16T06:31:24;25.53;;;3.73;;
75441;SDS011;64019;48.312;14.226;2022-10-16T06:33:53;30.97;;;4.00;;
75441;SDS011;64019;48.312;14.226;2022-10-16T06:36:19;35.83;;;4.17;;
75441;SDS011;64019;48.312;14.226;2022-10-16T06:38:45;23.17;;;3.63;;
75441;SDS011;64019;48.312;14.226;2022-10-16T06:41:12;19.90;;;3.83;;
75441;SDS011;64019;48.312;14.226;2022-10-16T06:43:41;11.57;;;3.87;;
75441;SDS011;64019;48.312;14.226;2022-10-16T06:46:07;23.23;;;3.73;;
75441;SDS011;64019;48.312;14.226;2022-10-16T06:48:34;28.67;;;3.40;;
75441;SDS011;64019;48.312;14.226;2022-10-16T06:53:31;14.47;;;3.27;;
75441;SDS011;64019;48.312;14.226;2022-10-16T06:56:20;14.10;;;3.50;;
75441;SDS011;64019;48.312;14.226;2022-10-16T06:58:47;14.07;;;3.63;;
75441;SDS011;64019;48.312;14.226;2022-10-16T07:01:14;13.77;;;3.63;;
75441;SDS011;64019;48.312;14.226;2022-10-16T07:03:41;23.90;;;4.07;;
75441;SDS011;64019;48.312;14.226;2022-10-16T07:06:09;11.07;;;4.00;;
75441;SDS011;64019;48.312;14.226;2022-10-16T07:08:38;7.63;;;4.20;;
75441;SDS011;64019;48.312;14.226;2022-10-16T07:11:06;10.73;;;3.17;;
75441;SDS011;64019;48.312;14.226;2022-10-16T07:13:34;7.67;;;3.23;;
75441;SDS011;64019;48.312;14.226;2022-10-16T07:16:07;17.63;;;3.70;;
75441;SDS011;64019;48.312;14.226;2022-10-16T07:18:37;6.93;;;3.17;;
75441;SDS011;64019;48.312;14.226;2022-10-16T07:21:06;5.70;;;3.27;;
75441;SDS011;64019;48.312;14.226;2022-10-16T07:23:32;10.50;;;3.23;;
75441;SDS011;64019;48.312;14.226;2022-10-16T07:25:58;4.87;;;3.53;;
75441;SDS011;64019;48.312;14.226;2022-10-16T07:28:24;10.53;;;3.77;;
75441;SDS011;64019;48.312;14.226;2022-10-16T07:30:50;10.50;;;4.00;;
75441;SDS011;64019;48.312;14.226;2022-10-16T07:33:16;5.63;;;3.13;;
75441;SDS011;64019;48.312;14.226;2022-10-16T07:35:51;8.23;;;3.80;;
75441;SDS011;64019;48.312;14.226;2022-10-16T07:38:18;5.57;;;3.93;;
75441;SDS011;64019;48.312;14.226;2022-10-16T07:40:44;6.67;;;3.80;;
75441;SDS011;64019;48.312;14.226;2022-10-16T07:43:10;4.97;;;3.67;;
75441;SDS011;64019;48.312;14.226;2022-10-16T07:45:36;6.93;;;3.83;;
75441;SDS011;64019;48.312;14.226;2022-10-16T07:48:02;6.20;;;4.33;;
75441;SDS011;64019;48.312;14.226;2022-10-16T07:50:28;6.67;;;3.60;;
75441;SDS011;64019;48.312;14.226;2022-10-16T07:52:54;7.33;;;3.90;;
75441;SDS011;64019;48.312;14.226;2022-10-16T07:55:20;5.23;;;3.73;;
75441;SDS011;64019;48.312;14.226;2022-10-16T07:57:45;8.60;;;4.27;;
75441;SDS011;64019;48.312;14.226;2022-10-16T08:00:11;11.57;;;5.43;;
75441;SDS011;64019;48.312;14.226;2022-10-16T08:02:41;7.93;;;5.33;;
75441;SDS011;64019;48.312;14.226;2022-10-16T08:05:07;11.27;;;5.70;;
75441;SDS011;64019;48.312;14.226;2022-10-16T08:07:33;11.50;;;6.50;;
75441;SDS011;64019;48.312;14.226;2022-10-16T08:09:59;10.13;;;6.00;;
75441;SDS011;64019;48.312;14.226;2022-10-16T08:12:25;10.47;;;6.40;;
75441;SDS011;64019;48.312;14.226;2022-10-16T08:14:51;16.70;;;6.60;;
75441;SDS011;64019;48.312;14.226;2022-10-16T08:17:17;10.87;;;6.33;;
75441;SDS011;64019;48.312;14.226;2022-10-16T08:19:46;19.50;;;7.20;;
75441;SDS011;64019;48.312;14.226;2022-10-16T08:22:12;11.77;;;7.13;;
75441;SDS011;64019;48.312;14.226;2022-10-16T08:24:38;12.07;;;6.40;;
75441;SDS011;64019;48.312;14.226;2022-10-16T08:27:05;11.70;;;6.53;;
75441;SDS011;64019;48.312;14.226;2022-10-16T08:29:31;11.43;;;6.53;;
75441;SDS011;64019;48.312;14.226;2022-10-16T08:31:57;12.73;;;7.10;;
75441;SDS011;64019;48.312;14.226;2022-10-16T08:34:23;12.23;;;7.10;;
75441;SDS011;64019;48.312;14.226;2022-10-16T08:36:49;12.33;;;6.43;;
75441;SDS011;64019;48.312;14.226;2022-10-16T08:39:15;15.30;;;6.63;;
75441;SDS011;64019;48.312;14.226;2022-10-16T08:41:55;14.80;;;7.30;;
75441;SDS011;64019;48.312;14.226;2022-10-16T08:50:23;16.30;;;7.73;;
75441;SDS011;64019;48.312;14.226;2022-10-16T08:52:52;16.53;;;8.37;;
75441;SDS011;64019;48.312;14.226;2022-10-16T08:55:29;18.27;;;8.33;;
75441;SDS011;64019;48.312;14.226;2022-10-16T08:57:59;17.03;;;9.17;;
75441;SDS011;64019;48.312;14.226;2022-10-16T09:00:25;20.63;;;9.17;;
75441;SDS011;64019;48.312;14.226;2022-10-16T09:02:53;19.63;;;9.30;;
75441;SDS011;64019;48.312;14.226;2022-10-16T09:22:50;23.70;;;10.73;;
75441;SDS011;64019;48.312;14.226;2022-10-16T09:25:23;24.23;;;10.87;;
75441;SDS011;64019;48.312;14.226;2022-10-16T09:27:49;23.60;;;11.73;;
75441;SDS011;64019;48.312;14.226;2022-10-16T09:30:20;23.07;;;12.33;;
75441;SDS011;64019;48.312;14.226;2022-10-16T09:32:47;29.60;;;13.13;;
75441;SDS011;64019;48.312;14.226;2022-10-16T09:35:16;29.33;;;12.77;;
75441;SDS011;64019;48.312;14.226;2022-10-16T09:37:50;28.03;;;13.63;;
75441;SDS011;64019;48.312;14.226;2022-10-16T09:43:01;24.20;;;11.67;;
75441;SDS011;64019;48.312;14.226;2022-10-16T09:45:39;21.17;;;10.93;;
75441;SDS011;64019;48.312;14.226;2022-10-16T09:48:12;20.80;;;11.27;;
75441;SDS011;64019;48.312;14.226;2022-10-16T09:50:43;23.37;;;11.07;;
75441;SDS011;64019;48.312;14.226;2022-10-16T09:53:20;23.60;;;11.40;;
75441;SDS011;64019;48.312;14.226;2022-10-16T09:55:51;25.97;;;11.37;;
75441;SDS011;64019;48.312;14.226;2022-10-16T09:58:21;26.17;;;12.03;;
75441;SDS011;64019;48.312;14.226;2022-10-16T10:00:52;23.87;;;11.90;;
75441;SDS011;64019;48.312;14.226;2022-10-16T10:03:30;23.73;;;11.63;;
75441;SDS011;64019;48.312;14.226;2022-10-16T10:06:16;34.27;;;12.17;;
75441;SDS011;64019;48.312;14.226;2022-10-16T10:11:44;25.77;;;12.10;;
75441;SDS011;64019;48.312;14.226;2022-10-16T10:16:47;24.27;;;10.93;;
75441;SDS011;64019;48.312;14.226;2022-10-16T10:19:15;24.77;;;11.43;;
75441;SDS011;64019;48.312;14.226;2022-10-16T10:21:42;23.20;;;11.07;;
75441;SDS011;64019;48.312;14.226;2022-10-16T10:24:12;20.40;;;10.63;;
75441;SDS011;64019;48.312;14.226;2022-10-16T10:26:57;19.40;;;10.30;;
75441;SDS011;64019;48.312;14.226;2022-10-16T10:29:52;22.47;;;11.13;;
75441;SDS011;64019;48.312;14.226;2022-10-16T10:32:33;23.60;;;11.63;;
75441;SDS011;64019;48.312;14.226;2022-10-16T10:40:34;19.30;;;10.20;;
75441;SDS011;64019;48.312;14.226;2022-10-16T10:51:32;23.07;;;11.27;;
75441;SDS011;64019;48.312;14.226;2022-10-16T11:01:56;10.63;;;7.27;;
75441;SDS011;64019;48.312;14.226;2022-10-16T11:07:32;14.60;;;8.03;;
75441;SDS011;64019;48.312;14.226;2022-10-16T11:10:04;15.73;;;7.40;;
75441;SDS011;64019;48.312;14.226;2022-10-16T11:12:52;12.97;;;7.53;;
75441;SDS011;64019;48.312;14.226;2022-10-16T11:15:32;14.43;;;7.03;;
75441;SDS011;64019;48.312;14.226;2022-10-16T11:18:06;12.20;;;6.17;;
75441;SDS011;64019;48.312;14.226;2022-10-16T11:20:56;15.77;;;6.90;;
75441;SDS011;64019;48.312;14.226;2022-10-16T11:23:37;15.43;;;6.90;;
75441;SDS011;64019;48.312;14.226;2022-10-16T11:26:05;12.33;;;6.70;;
75441;SDS011;64019;48.312;14.226;2022-10-16T11:28:41;13.33;;;7.67;;
75441;SDS011;64019;48.312;14.226;2022-10-16T11:31:25;11.90;;;7.20;;
75441;SDS011;64019;48.312;14.226;2022-10-16T11:34:21;20.47;;;7.80;;
75441;SDS011;64019;48.312;14.226;2022-10-16T11:39:28;12.97;;;7.10;;
75441;SDS011;64019;48.312;14.226;2022-10-16T11:42:03;18.40;;;7.67;;
75441;SDS011;64019;48.312;14.226;2022-10-16T11:53:18;13.80;;;7.83;;
75441;SDS011;64019;48.312;14.226;2022-10-16T11:55:47;16.77;;;8.33;;
75441;SDS011;64019;48.312;14.226;2022-10-16T12:00:59;12.97;;;7.63;;
75441;SDS011;64019;48.312;14.226;2022-10-16T12:03:46;14.30;;;6.83;;
75441;SDS011;64019;48.312;14.226;2022-10-16T12:07:20;10.97;;;5.93;;
75441;SDS011;64019;48.312;14.226;2022-10-16T12:09:31;11.97;;;6.40;;
75441;SDS011;64019;48.312;14.226;2022-10-16T12:11:59;11.17;;;5.87;;
75441;SDS011;64019;48.312;14.226;2022-10-16T12:17:04;12.43;;;6.07;;
75441;SDS011;64019;48.312;14.226;2022-10-16T12:19:56;8.80;;;5.13;;
75441;SDS011;64019;48.312;14.226;2022-10-16T12:22:58;11.47;;;5.73;;
75441;SDS011;64019;48.312;14.226;2022-10-16T12:25:25;11.60;;;5.17;;
75441;SDS011;64019;48.312;14.226;2022-10-16T12:30:27;7.13;;;4.50;;
75441;SDS011;64019;48.312;14.226;2022-10-16T12:33:02;11.20;;;4.63;;
75441;SDS011;64019;48.312;14.226;2022-10-16T12:35:45;7.87;;;3.47;;
75441;SDS011;64019;48.312;14.226;2022-10-16T12:41:02;6.43;;;3.13;;
75441;SDS011;64019;48.312;14.226;2022-10-16T12:48:38;7.20;;;2.87;;
75441;SDS011;64019;48.312;14.226;2022-10-16T12:51:12;18.80;;;2.90;;
75441;SDS011;64019;48.312;14.226;2022-10-16T12:54:10;9.73;;;3.47;;
75441;SDS011;64019;48.312;14.226;2022-10-16T13:13:07;9.80;;;2.97;;
75441;SDS011;64019;48.312;14.226;2022-10-16T13:15:52;11.47;;;3.30;;
75441;SDS011;64019;48.312;14.226;2022-10-16T13:21:11;10.80;;;3.13;;
75441;SDS011;64019;48.312;14.226;2022-10-16T13:23:48;9.37;;;3.43;;
75441;SDS011;64019;48.312;14.226;2022-10-16T13:29:31;9.97;;;3.97;;
75441;SDS011;64019;48.312;14.226;2022-10-16T13:31:58;7.60;;;3.33;;
75441;SDS011;64019;48.312;14.226;2022-10-16T13:34:26;11.57;;;3.80;;
75441;SDS011;64019;48.312;14.226;2022-10-16T13:36:53;11.00;;;3.17;;
75441;SDS011;64019;48.312;14.226;2022-10-16T13:44:53;5.93;;;3.10;;
75441;SDS011;64019;48.312;14.226;2022-10-16T13:47:26;10.37;;;4.20;;
75441;SDS011;64019;48.312;14.226;2022-10-16T13:50:26;5.77;;;3.10;;
75441;SDS011;64019;48.312;14.226;2022-10-16T13:52:45;12.00;;;4.00;;
75441;SDS011;64019;48.312;14.226;2022-10-16T13:55:15;8.53;;;3.03;;
75441;SDS011;64019;48.312;14.226;2022-10-16T13:57:42;6.27;;;2.93;;
75441;SDS011;64019;48.312;14.226;2022-10-16T14:02:53;7.73;;;2.43;;
75441;SDS011;64019;48.312;14.226;2022-10-16T14:05:23;7.27;;;2.80;;
75441;SDS011;64019;48.312;14.226;2022-10-16T14:07:49;10.13;;;2.80;;
75441;SDS011;64019;48.312;14.226;2022-10-16T14:10:22;9.00;;;2.90;;
75441;SDS011;64019;48.312;14.226;2022-10-16T14:12:54;9.10;;;2.97;;
75441;SDS011;64019;48.312;14.226;2022-10-16T14:15:30;6.20;;;2.50;;
75441;SDS011;64019;48.312;14.226;2022-10-16T14:17:58;15.60;;;2.60;;
75441;SDS011;64019;48.312;14.226;2022-10-16T14:20:25;9.90;;;2.57;;
75441;SDS011;64019;48.312;14.226;2022-10-16T14:23:03;7.20;;;2.60;;
75441;SDS011;64019;48.312;14.226;2022-10-16T14:25:43;9.30;;;2.50;;
75441;SDS011;64019;48.312;14.226;2022-10-16T14:28:15;11.87;;;2.80;;
75441;SDS011;64019;48.312;14.226;2022-10-16T14:30:53;7.27;;;2.40;;
75441;SDS011;64019;48.312;14.226;2022-10-16T14:33:25;6.97;;;2.70;;
75441;SDS011;64019;48.312;14.226;2022-10-16T14:36:06;10.63;;;2.47;;
75441;SDS011;64019;48.312;14.226;2022-10-16T14:38:42;5.83;;;2.33;;
75441;SDS011;64019;48.312;14.226;2022-10-16T14:41:14;3.90;;;2.10;;
75441;SDS011;64019;48.312;14.226;2022-10-16T14:49:37;4.67;;;2.00;;
75441;SDS011;64019;48.312;14.226;2022-10-16T14:52:12;9.13;;;1.73;;
75441;SDS011;64019;48.312;14.226;2022-10-16T14:54:39;4.13;;;1.53;;
75441;SDS011;64019;48.312;14.226;2022-10-16T14:57:05;10.10;;;2.00;;
75441;SDS011;64019;48.312;14.226;2022-10-16T14:59:40;5.10;;;2.00;;
75441;SDS011;64019;48.312;14.226;2022-10-16T15:04:56;4.83;;;1.50;;
75441;SDS011;64019;48.312;14.226;2022-10-16T15:07:22;3.43;;;1.47;;
75441;SDS011;64019;48.312;14.226;2022-10-16T15:09:48;2.73;;;1.70;;
75441;SDS011;64019;48.312;14.226;2022-10-16T15:12:14;7.03;;;1.90;;
75441;SDS011;64019;48.312;14.226;2022-10-16T15:14:40;6.77;;;1.57;;
75441;SDS011;64019;48.312;14.226;2022-10-16T15:17:07;5.97;;;1.80;;
75441;SDS011;64019;48.312;14.226;2022-10-16T15:19:36;5.93;;;1.80;;
75441;SDS011;64019;48.312;14.226;2022-10-16T15:22:02;9.53;;;1.70;;
75441;SDS011;64019;48.312;14.226;2022-10-16T15:24:27;6.10;;;1.60;;
75441;SDS011;64019;48.312;14.226;2022-10-16T15:26:53;6.47;;;2.10;;
75441;SDS011;64019;48.312;14.226;2022-10-16T15:29:19;6.33;;;2.50;;
75441;SDS011;64019;48.312;14.226;2022-10-16T15:31:45;5.90;;;2.50;;
75441;SDS011;64019;48.312;14.226;2022-10-16T15:34:12;8.67;;;3.43;;
75441;SDS011;64019;48.312;14.226;2022-10-16T15:36:38;4.67;;;2.10;;
75441;SDS011;64019;48.312;14.226;2022-10-16T15:39:05;7.33;;;2.83;;
75441;SDS011;64019;48.312;14.226;2022-10-16T15:41:41;5.57;;;2.23;;
75441;SDS011;64019;48.312;14.226;2022-10-16T15:44:07;9.43;;;2.40;;
75441;SDS011;64019;48.312;14.226;2022-10-16T15:46:33;11.87;;;2.60;;
75441;SDS011;64019;48.312;14.226;2022-10-16T15:48:59;5.83;;;2.20;;
75441;SDS011;64019;48.312;14.226;2022-10-16T15:51:26;8.00;;;2.43;;
75441;SDS011;64019;48.312;14.226;2022-10-16T15:53:58;9.93;;;2.20;;
75441;SDS011;64019;48.312;14.226;2022-10-16T15:56:26;5.33;;;2.23;;
75441;SDS011;64019;48.312;14.226;2022-10-16T15:58:53;5.93;;;2.37;;
75441;SDS011;64019;48.312;14.226;2022-10-16T16:01:20;12.60;;;3.00;;
75441;SDS011;64019;48.312;14.226;2022-10-16T16:03:46;12.23;;;3.27;;
75441;SDS011;64019;48.312;14.226;2022-10-16T16:06:12;7.73;;;4.10;;
75441;SDS011;64019;48.312;14.226;2022-10-16T16:08:39;8.17;;;4.23;;
75441;SDS011;64019;48.312;14.226;2022-10-16T16:11:07;14.00;;;3.70;;
75441;SDS011;64019;48.312;14.226;2022-10-16T16:13:34;9.23;;;3.37;;
75441;SDS011;64019;48.312;14.226;2022-10-16T16:16:04;8.00;;;3.00;;
75441;SDS011;64019;48.312;14.226;2022-10-16T16:18:34;6.30;;;3.00;;
75441;SDS011;64019;48.312;14.226;2022-10-16T16:20:59;8.93;;;3.57;;
75441;SDS011;64019;48.312;14.226;2022-10-16T16:23:25;9.50;;;3.80;;
75441;SDS011;64019;48.312;14.226;2022-10-16T16:28:41;5.30;;;2.20;;
75441;SDS011;64019;48.312;14.226;2022-10-16T16:31:07;5.63;;;1.53;;
75441;SDS011;64019;48.312;14.226;2022-10-16T16:33:34;6.80;;;1.97;;
75441;SDS011;64019;48.312;14.226;2022-10-16T16:36:03;7.07;;;1.63;;
75441;SDS011;64019;48.312;14.226;2022-10-16T16:38:31;3.73;;;1.50;;
75441;SDS011;64019;48.312;14.226;2022-10-16T16:40:57;4.97;;;1.67;;
75441;SDS011;64019;48.312;14.226;2022-10-16T16:43:24;3.90;;;1.90;;
75441;SDS011;64019;48.312;14.226;2022-10-16T16:45:50;4.03;;;1.83;;
75441;SDS011;64019;48.312;14.226;2022-10-16T16:48:16;6.77;;;2.30;;
75441;SDS011;64019;48.312;14.226;2022-10-16T16:50:42;9.73;;;2.30;;
75441;SDS011;64019;48.312;14.226;2022-10-16T16:53:08;10.53;;;2.67;;
75441;SDS011;64019;48.312;14.226;2022-10-16T16:55:34;5.20;;;1.77;;
75441;SDS011;64019;48.312;14.226;2022-10-16T16:57:59;2.93;;;2.20;;
75441;SDS011;64019;48.312;14.226;2022-10-16T17:00:25;16.00;;;3.73;;
75441;SDS011;64019;48.312;14.226;2022-10-16T17:02:51;7.13;;;3.63;;
75441;SDS011;64019;48.312;14.226;2022-10-16T17:05:17;6.83;;;3.43;;